Time;durP1;ratioP1;P1;durP2;ratioP2;P2;SDS_P1;SDS_P2;PMS_P1;PMS_P2;Temp;Humidity;BMP_temperature;BMP_pressure;BME280_temperature;BME280_humidity;BME280_pressure;Samples;Min_cycle;Max_cycle;Signal;HPM_P1;HPM_P2
2022/04/16 00:02:19;;;;;;;18.77;11.13;;;;;;;6.60;100.00;97943.63;1695922;85;21562;-77
2022/04/16 00:04:47;;;;;;;21.03;11.30;;;;;;;6.56;100.00;97943.20;1688260;85;21063;-77
2022/04/16 00:07:14;;;;;;;18.00;10.87;;;;;;;6.53;100.00;97940.89;1695891;85;21019;-77
2022/04/16 00:09:42;;;;;;;20.47;11.73;;;;;;;6.51;100.00;97944.81;1659186;86;21090;-77
2022/04/16 00:12:09;;;;;;;20.47;11.53;;;;;;;6.48;100.00;97942.52;1695841;85;21081;-78
2022/04/16 00:14:38;;;;;;;19.47;10.70;;;;;;;6.44;100.00;97946.92;1688602;85;21102;-77
2022/04/16 00:17:06;;;;;;;21.13;11.23;;;;;;;6.42;100.00;97944.95;1696113;85;21058;-76
2022/04/16 00:19:36;;;;;;;18.73;11.27;;;;;;;6.40;100.00;97950.22;1660444;86;21055;-77
2022/04/16 00:22:07;;;;;;;19.77;10.70;;;;;;;6.36;100.00;97951.64;1695903;85;21061;-78
2022/04/16 00:24:34;;;;;;;18.93;11.40;;;;;;;6.33;100.00;97956.88;1665353;85;21054;-76
2022/04/16 00:27:03;;;;;;;17.83;10.90;;;;;;;6.31;100.00;97953.56;1695455;85;21117;-77
2022/04/16 00:29:31;;;;;;;18.27;10.47;;;;;;;6.30;100.00;97959.12;1790161;80;21041;-78
2022/04/16 00:31:58;;;;;;;18.17;10.30;;;;;;;6.29;100.00;97957.48;1759651;80;21039;-76
2022/04/16 00:34:25;;;;;;;18.47;10.70;;;;;;;6.26;100.00;97950.10;1759190;80;21063;-79
2022/04/16 00:36:54;;;;;;;19.60;10.87;;;;;;;6.25;100.00;97951.64;1759880;80;21000;-77
2022/04/16 00:39:21;;;;;;;19.20;11.03;;;;;;;6.22;100.00;97952.87;1815777;79;21061;-76
2022/04/16 00:41:49;;;;;;;22.17;11.60;;;;;;;6.20;100.00;97955.44;1815653;79;21556;-77
2022/04/16 00:44:19;;;;;;;20.03;10.73;;;;;;;6.17;100.00;97966.03;1815651;79;21007;-76
2022/04/16 00:46:49;;;;;;;21.47;11.03;;;;;;;6.15;100.00;97968.61;1784382;79;21023;-77
2022/04/16 00:49:16;;;;;;;20.00;11.27;;;;;;;6.11;100.00;97964.14;1815694;79;20991;-77
2022/04/16 00:51:46;;;;;;;20.93;11.43;;;;;;;6.09;100.00;97970.19;1784196;79;21454;-78
2022/04/16 00:54:13;;;;;;;22.97;10.80;;;;;;;6.07;100.00;97981.14;1784253;79;21003;-77
2022/04/16 00:56:40;;;;;;;20.27;11.03;;;;;;;6.04;100.00;97985.53;1815779;79;20991;-76
2022/04/16 00:59:08;;;;;;;21.60;11.50;;;;;;;6.02;100.00;97984.91;1784521;79;20995;-76
2022/04/16 01:01:36;;;;;;;19.77;10.70;;;;;;;6.00;100.00;97988.78;1784097;79;21019;-76
2022/04/16 01:04:05;;;;;;;19.63;10.33;;;;;;;5.98;100.00;97985.47;1784385;79;20983;-77
2022/04/16 01:06:39;;;;;;;20.70;10.97;;;;;;;5.94;100.00;97988.20;1815520;79;20972;-77
2022/04/16 01:09:06;;;;;;;21.60;10.38;;;;;;;5.91;100.00;97992.07;1726857;82;21568;-77
2022/04/16 01:11:35;;;;;;;18.10;10.27;;;;;;;5.87;100.00;97993.48;1727737;82;21078;-77
2022/04/16 01:14:03;;;;;;;17.37;10.07;;;;;;;5.85;100.00;97996.36;1752609;82;21063;-77
2022/04/16 01:16:33;;;;;;;18.97;10.30;;;;;;;5.82;100.00;97997.25;1749793;80;21576;-76
2022/04/16 01:19:01;;;;;;;17.03;9.50;;;;;;;5.78;100.00;98003.50;1758593;80;21079;-75
2022/04/16 01:21:30;;;;;;;19.57;9.80;;;;;;;5.76;100.00;98002.05;1784341;80;21072;-77
2022/04/16 01:23:58;;;;;;;17.70;9.70;;;;;;;5.74;100.00;98008.94;1758913;80;21087;-76
2022/04/16 01:26:26;;;;;;;17.23;9.60;;;;;;;5.73;100.00;98006.44;1758747;80;21517;-76
2022/04/16 01:28:53;;;;;;;19.77;10.13;;;;;;;5.70;100.00;98007.63;1784561;80;21002;-74
2022/04/16 01:31:22;;;;;;;18.20;10.33;;;;;;;5.67;100.00;98018.24;1759926;81;21036;-77
2022/04/16 01:33:49;;;;;;;18.13;9.60;;;;;;;5.64;100.00;98017.79;1768574;80;21559;-77
2022/04/16 01:36:17;;;;;;;18.60;9.97;;;;;;;5.61;100.00;98015.48;1748667;82;21082;-77
2022/04/16 01:38:46;;;;;;;17.37;9.70;;;;;;;5.56;100.00;98020.08;1749013;82;21031;-77
2022/04/16 01:41:13;;;;;;;18.17;9.97;;;;;;;5.53;100.00;98020.45;1748796;82;21098;-76
2022/04/16 01:43:42;;;;;;;18.63;9.70;;;;;;;5.51;100.00;98027.86;1750630;82;21011;-77
2022/04/16 01:46:09;;;;;;;19.40;9.47;;;;;;;5.48;100.00;98027.70;1749621;82;21070;-77
2022/04/16 01:48:36;;;;;;;15.57;8.93;;;;;;;5.44;100.00;98027.77;1748808;82;21090;-76
2022/04/16 01:51:05;;;;;;;16.60;9.37;;;;;;;5.40;100.00;98030.52;1748889;81;21007;-75
2022/04/16 01:53:33;;;;;;;16.70;9.30;;;;;;;5.37;100.00;98034.90;1748642;82;21014;-76
2022/04/16 01:56:01;;;;;;;17.57;9.07;;;;;;;5.34;100.00;98043.30;1749128;82;21078;-77
2022/04/16 01:58:31;;;;;;;20.13;9.10;;;;;;;5.31;100.00;98038.31;1748655;82;21050;-76
2022/04/16 02:00:59;;;;;;;16.63;8.57;;;;;;;5.29;100.00;98045.70;1748699;82;21086;-77
2022/04/16 02:03:27;;;;;;;14.87;8.57;;;;;;;5.26;100.00;98044.77;1748713;82;21137;-77
2022/04/16 02:05:55;;;;;;;18.03;8.60;;;;;;;5.23;100.00;98041.92;1751619;81;21048;-76
2022/04/16 02:08:22;;;;;;;16.53;8.83;;;;;;;5.21;100.00;98051.19;1746983;82;21517;-77
2022/04/16 02:10:50;;;;;;;17.13;8.87;;;;;;;5.19;100.00;98055.38;1775734;81;21074;-77
2022/04/16 02:13:17;;;;;;;16.90;8.63;;;;;;;5.17;100.00;98059.25;1774995;80;21062;-77
2022/04/16 02:15:45;;;;;;;16.20;8.80;;;;;;;5.13;100.00;98052.09;1775831;80;21039;-74
2022/04/16 02:18:12;;;;;;;15.67;8.53;;;;;;;5.09;100.00;98058.84;1776056;81;21038;-78
2022/04/16 02:20:43;;;;;;;21.67;9.80;;;;;;;5.07;100.00;98066.23;1744061;81;21058;-77
2022/04/16 02:23:09;;;;;;;18.13;8.93;;;;;;;5.03;100.00;98067.59;1771439;80;21523;-76
2022/04/16 02:25:41;;;;;;;17.07;9.00;;;;;;;5.01;100.00;98069.63;1776152;80;21062;-76
2022/04/16 02:28:07;;;;;;;19.33;9.73;;;;;;;4.98;100.00;98077.55;1776021;81;21077;-76
2022/04/16 02:30:37;;;;;;;17.90;9.73;;;;;;;4.95;100.00;98080.06;1775999;80;21089;-78
2022/04/16 02:33:06;;;;;;;19.70;9.27;;;;;;;4.92;100.00;98084.47;1743298;81;21003;-76
2022/04/16 02:35:34;;;;;;;18.60;8.90;;;;;;;4.91;100.00;98089.48;1771422;80;20982;-75
2022/04/16 02:38:02;;;;;;;19.40;9.37;;;;;;;4.88;100.00;98096.54;1771066;81;21512;-76
2022/04/16 02:40:31;;;;;;;18.53;9.30;;;;;;;4.85;100.00;98094.25;1763105;81;21038;-76
2022/04/16 02:42:58;;;;;;;16.40;9.33;;;;;;;4.83;100.00;98106.96;1729044;81;21054;-77
2022/04/16 02:48:11;;;;;;;18.80;9.47;;;;;;;4.77;100.00;98112.23;1732456;83;21104;-76
2022/04/16 02:50:38;;;;;;;19.30;9.47;;;;;;;4.74;100.00;98128.96;1700024;83;21565;-77
2022/04/16 02:53:05;;;;;;;18.43;9.33;;;;;;;4.73;100.00;98129.17;1698820;83;20998;-75
2022/04/16 02:55:33;;;;;;;17.47;9.60;;;;;;;4.71;100.00;98132.50;1732485;83;21522;-76
2022/04/16 02:58:00;;;;;;;19.43;10.07;;;;;;;4.67;100.00;98137.39;1732498;83;21084;-76
2022/04/16 03:00:29;;;;;;;18.13;9.60;;;;;;;4.66;100.00;98147.79;1699831;83;21052;-74
2022/04/16 03:02:56;;;;;;;18.93;10.40;;;;;;;4.67;100.00;98137.91;1699757;83;21514;-74
2022/04/16 03:05:23;;;;;;;16.93;9.87;;;;;;;4.66;100.00;98137.59;1732452;83;21017;-76
2022/04/16 03:07:50;;;;;;;17.07;9.80;;;;;;;4.67;100.00;98137.91;1700827;83;21088;-77
2022/04/16 03:10:19;;;;;;;17.83;11.00;;;;;;;4.67;100.00;98134.71;1700514;83;21057;-75
2022/04/16 03:12:52;;;;;;;18.17;9.73;;;;;;;4.68;100.00;98136.39;1700014;83;21049;-77
2022/04/16 03:18:09;;;;;;;16.83;9.93;;;;;;;4.72;100.00;98125.64;1732879;83;21058;-76
2022/04/16 03:20:42;;;;;;;19.80;10.27;;;;;;;4.72;100.00;98129.66;1699807;83;21089;-76
2022/04/16 03:23:10;;;;;;;18.57;10.45;;;;;;;4.73;100.00;98129.99;1699628;83;21021;-75
2022/04/16 03:25:41;;;;;;;19.03;10.60;;;;;;;4.77;100.00;98125.11;1732930;83;21088;-76
2022/04/16 03:28:08;;;;;;;20.13;9.50;;;;;;;4.79;100.00;98120.40;1728544;82;21023;-77
2022/04/16 03:30:36;;;;;;;18.77;10.67;;;;;;;4.81;100.00;98108.99;1739235;82;21047;-77
2022/04/16 03:33:03;;;;;;;17.03;9.83;;;;;;;4.82;100.00;98106.66;1715106;82;21031;-75
2022/04/16 03:35:30;;;;;;;20.23;10.97;;;;;;;4.85;100.00;98106.30;1740979;82;21167;-76
2022/04/16 03:37:58;;;;;;;19.87;10.40;;;;;;;4.88;100.00;98103.75;1739102;82;21051;-76
2022/04/16 03:40:27;;;;;;;17.50;10.30;;;;;;;4.88;100.00;98095.72;1739750;82;21038;-77
2022/04/16 03:42:58;;;;;;;17.80;10.23;;;;;;;4.90;100.00;98090.48;1714901;82;21027;-75
2022/04/16 03:45:31;;;;;;;20.60;10.97;;;;;;;4.92;100.00;98087.15;1690955;82;21007;-78
2022/04/16 03:47:59;;;;;;;20.45;11.05;;;;;;;4.93;100.00;98078.59;1645804;85;21068;-78
2022/04/16 03:50:29;;;;;;;19.93;11.00;;;;;;;4.93;100.00;98078.59;1684367;85;21089;-76
2022/04/16 03:52:56;;;;;;;20.67;11.17;;;;;;;4.95;100.00;98076.05;1705518;84;21086;-76
2022/04/16 04:01:00;;;;;;;23.23;12.90;;;;;;;5.07;100.00;98068.40;1698365;84;21054;-76
2022/04/16 04:03:27;;;;;;;21.60;12.87;;;;;;;5.12;100.00;98071.88;1697939;83;21077;-76
2022/04/16 04:05:55;;;;;;;23.20;13.60;;;;;;;5.16;100.00;98075.02;1674615;84;21046;-75
2022/04/16 04:08:25;;;;;;;21.73;12.93;;;;;;;5.20;100.00;98065.59;1675195;84;21082;-77
2022/04/16 04:10:52;;;;;;;23.50;14.20;;;;;;;5.24;100.00;98057.00;1698079;84;21214;-78
2022/04/16 04:13:20;;;;;;;24.37;14.77;;;;;;;5.29;100.00;98049.24;1674877;84;21086;-76
2022/04/16 04:15:47;;;;;;;23.10;14.80;;;;;;;5.32;100.00;98044.83;1698021;84;21058;-74
2022/04/16 04:18:15;;;;;;;25.07;15.23;;;;;;;5.37;100.00;98042.94;1697927;84;21093;-75
2022/04/16 04:20:42;;;;;;;24.47;14.80;;;;;;;5.41;100.00;98029.99;1698145;84;21079;-76
2022/04/16 04:23:09;;;;;;;24.20;14.87;;;;;;;5.44;100.00;98021.59;1675499;84;21058;-77
2022/04/16 04:25:37;;;;;;;24.13;15.00;;;;;;;5.45;100.00;98018.72;1675762;84;21050;-76
2022/04/16 04:28:05;;;;;;;23.60;13.47;;;;;;;5.49;100.00;98021.86;1690047;84;21055;-75
2022/04/16 04:30:33;;;;;;;24.40;15.17;;;;;;;5.53;100.00;98015.09;1670299;85;21130;-77
2022/04/16 04:33:01;;;;;;;23.33;13.77;;;;;;;5.60;100.00;98012.50;1648167;87;21573;-74
2022/04/16 04:35:29;;;;;;;22.50;13.70;;;;;;;5.66;100.00;98005.02;1652109;87;21042;-74
2022/04/16 04:37:57;;;;;;;26.27;15.77;;;;;;;5.71;100.00;98002.60;1629733;87;21051;-76
2022/04/16 04:40:25;;;;;;;24.30;14.33;;;;;;;5.76;100.00;97996.69;1651927;86;21023;-75
2022/04/16 04:42:52;;;;;;;24.83;15.37;;;;;;;5.78;100.00;97983.39;1652006;87;21619;-75
2022/04/16 04:45:19;;;;;;;24.07;14.57;;;;;;;5.82;100.00;97979.81;1677373;85;21041;-75
2022/04/16 04:47:48;;;;;;;26.07;16.17;;;;;;;5.89;100.00;97978.03;1688481;85;21042;-75
2022/04/16 04:50:15;;;;;;;24.30;15.43;;;;;;;5.91;100.00;97959.88;1664485;85;20998;-76
2022/04/16 04:52:43;;;;;;;25.47;15.50;;;;;;;5.94;100.00;97964.05;1643299;85;21050;-75
2022/04/16 04:55:12;;;;;;;25.83;16.07;;;;;;;5.95;100.00;97962.52;1755227;80;21050;-75
2022/04/16 04:57:42;;;;;;;25.63;16.03;;;;;;;5.95;100.00;97965.69;1748506;80;21030;-76
2022/04/16 05:00:11;;;;;;;25.40;15.47;;;;;;;5.95;100.00;97963.86;1758068;80;21050;-76
2022/04/16 05:02:45;;;;;;;27.93;17.03;;;;;;;5.96;100.00;97955.33;1782853;80;21057;-73
2022/04/16 05:05:12;;;;;;;28.07;17.40;;;;;;;5.99;100.00;97938.34;1708177;83;21106;-75
2022/04/16 05:07:40;;;;;;;28.10;17.33;;;;;;;6.05;100.00;97940.75;1732507;83;21012;-76
2022/04/16 05:10:09;;;;;;;29.40;17.33;;;;;;;6.06;100.00;97943.77;1707789;83;20996;-74
2022/04/16 05:12:37;;;;;;;27.23;18.23;;;;;;;6.08;100.00;97949.77;1732340;83;21064;-76
2022/04/16 05:15:08;;;;;;;26.93;17.77;;;;;;;6.08;100.00;97954.61;1708120;83;21521;-75
2022/04/16 05:17:37;;;;;;;27.37;16.83;;;;;;;6.11;100.00;97953.90;1708532;83;21039;-76
2022/04/16 05:20:08;;;;;;;28.03;17.30;;;;;;;6.11;100.00;97957.44;1708466;83;21075;-77
2022/04/16 05:22:38;;;;;;;28.20;17.30;;;;;;;6.14;100.00;97955.68;1732426;82;21048;-76
2022/04/16 05:25:08;;;;;;;28.20;18.17;;;;;;;6.19;100.00;97947.88;1699340;83;21039;-76
2022/04/16 05:27:35;;;;;;;27.70;17.97;;;;;;;6.29;100.00;97942.72;1709601;83;21004;-78
2022/04/16 05:30:06;;;;;;;27.27;17.70;;;;;;;6.31;100.00;97936.11;1708298;83;21096;-75
2022/04/16 05:32:37;;;;;;;27.80;17.77;;;;;;;6.39;100.00;97933.30;1732569;83;21596;-77
2022/04/16 05:35:05;;;;;;;26.37;16.60;;;;;;;6.44;100.00;97927.31;1700073;83;21072;-76
2022/04/16 05:37:33;;;;;;;26.67;16.27;;;;;;;6.51;100.00;97908.05;1699266;83;21049;-78
2022/04/16 05:40:01;;;;;;;24.90;16.33;;;;;;;6.56;100.00;97915.52;1723527;83;21155;-76
2022/04/16 05:42:28;;;;;;;25.57;16.03;;;;;;;6.63;100.00;97912.36;1723685;83;21077;-78
2022/04/16 05:45:01;;;;;;;29.00;16.37;;;;;;;6.72;100.00;97911.69;1699355;83;21046;-77
2022/04/16 05:47:29;;;;;;;23.87;14.43;;;;;;;6.76;100.00;97904.36;1715646;82;21081;-78
2022/04/16 05:49:56;;;;;;;20.63;12.80;;;;;;;6.86;100.00;97907.22;1712651;84;21039;-73
2022/04/16 05:52:23;;;;;;;19.70;13.13;;;;;;;6.94;100.00;97894.94;1689143;84;21111;-74
2022/04/16 05:54:51;;;;;;;22.70;12.07;;;;;;;6.88;100.00;97910.53;1689014;84;21086;-76
2022/04/16 05:57:25;;;;;;;18.60;11.23;;;;;;;6.86;100.00;97915.28;1689095;84;21584;-77
2022/04/16 05:59:55;;;;;;;21.33;11.37;;;;;;;6.83;100.00;97920.03;1689778;84;21106;-78
2022/04/16 06:02:22;;;;;;;20.37;11.27;;;;;;;6.89;100.00;97920.23;1698387;83;21506;-74
2022/04/16 06:04:50;;;;;;;19.23;11.77;;;;;;;6.98;100.00;97912.34;1734191;81;21041;-77
2022/04/16 06:07:20;;;;;;;19.40;11.90;;;;;;;6.98;100.00;97912.34;1733743;83;20989;-77
2022/04/16 06:09:47;;;;;;;18.47;11.13;;;;;;;6.95;100.00;97936.39;1752507;80;21015;-77
2022/04/16 06:12:16;;;;;;;19.13;11.80;;;;;;;6.99;100.00;97946.23;1761736;80;21081;-74
2022/04/16 06:14:43;;;;;;;20.27;11.03;;;;;;;7.05;100.00;97961.57;1762175;80;21057;-78
2022/04/16 06:17:11;;;;;;;18.47;10.70;;;;;;;7.06;100.00;97969.92;1762289;80;21035;-77
2022/04/16 06:19:38;;;;;;;23.43;10.53;;;;;;;7.01;100.00;97986.66;1762483;80;21039;-74
2022/04/16 06:22:05;;;;;;;18.60;10.47;;;;;;;7.00;100.00;97997.09;1783570;79;21073;-78
2022/04/16 06:24:33;;;;;;;19.57;11.70;;;;;;;7.00;100.00;98025.30;1762074;80;21097;-75
2022/04/16 06:27:00;;;;;;;16.73;10.30;;;;;;;6.99;100.00;98047.84;1783531;80;21050;-74
2022/04/16 06:29:28;;;;;;;16.50;10.23;;;;;;;6.94;100.00;98060.18;1755024;80;21009;-73
2022/04/16 06:31:55;;;;;;;20.83;11.13;;;;;;;6.97;100.00;98070.55;1757210;80;21559;-76
2022/04/16 06:34:23;;;;;;;17.07;10.30;;;;;;;6.96;100.00;98093.91;1763184;80;20994;-72
2022/04/16 06:36:52;;;;;;;17.80;10.50;;;;;;;6.87;100.00;98125.98;1790320;79;21078;-76
2022/04/16 06:39:20;;;;;;;17.10;9.77;;;;;;;6.78;100.00;98141.41;1790692;80;21027;-76
2022/04/16 06:41:47;;;;;;;13.97;8.80;;;;;;;6.89;100.00;98149.94;1768138;80;21539;-74
2022/04/16 06:44:15;;;;;;;15.80;9.43;;;;;;;6.94;100.00;98144.33;1768210;80;21136;-71
2022/04/16 06:46:42;;;;;;;16.13;9.37;;;;;;;6.84;100.00;98167.48;1768315;80;21055;-75
2022/04/16 06:49:10;;;;;;;15.73;8.90;;;;;;;6.80;100.00;98186.36;1790396;79;21030;-74
2022/04/16 06:51:37;;;;;;;14.97;8.87;;;;;;;6.81;100.00;98198.75;1768597;80;21010;-74
2022/04/16 06:54:04;;;;;;;17.07;9.00;;;;;;;6.88;100.00;98207.41;1790592;79;21022;-72
2022/04/16 06:56:31;;;;;;;17.50;9.83;;;;;;;6.93;100.00;98210.34;1768656;80;21074;-74
2022/04/16 06:58:58;;;;;;;14.83;9.43;;;;;;;6.97;100.00;98211.09;1790629;80;21515;-73
2022/04/16 07:01:25;;;;;;;16.67;9.33;;;;;;;6.98;100.00;98226.20;1777739;79;21032;-75
2022/04/16 07:03:54;;;;;;;16.13;9.33;;;;;;;6.91;100.00;98246.80;1753224;82;21045;-75
2022/04/16 07:06:21;;;;;;;15.37;8.83;;;;;;;6.86;100.00;98249.75;1752702;82;21522;-74
2022/04/16 07:08:48;;;;;;;18.10;8.97;;;;;;;6.97;100.00;98255.95;1753176;81;21049;-76
2022/04/16 07:11:15;;;;;;;16.13;9.20;;;;;;;7.01;100.00;98244.64;1721653;82;21046;-75
2022/04/16 07:13:44;;;;;;;16.37;9.33;;;;;;;7.13;100.00;98228.81;1753620;82;21030;-73
2022/04/16 07:16:11;;;;;;;15.83;9.80;;;;;;;7.21;100.00;98235.41;1698729;82;20998;-73
2022/04/16 07:18:40;;;;;;;16.30;9.50;;;;;;;7.32;100.00;98246.66;1754514;82;21027;-73
2022/04/16 07:21:07;;;;;;;16.93;9.93;;;;;;;7.43;100.00;98243.44;1753382;82;21543;-75
2022/04/16 07:23:34;;;;;;;19.07;9.60;;;;;;;7.42;100.00;98251.20;1753454;82;21077;-73
2022/04/16 07:26:01;;;;;;;19.27;10.43;;;;;;;7.54;100.00;98247.45;1753223;82;21530;-73
2022/04/16 07:28:29;;;;;;;16.90;9.90;;;;;;;7.62;100.00;98265.32;1728276;82;21561;-72
2022/04/16 07:30:56;;;;;;;16.93;9.57;;;;;;;7.65;100.00;98259.03;1732275;83;21544;-73
2022/04/16 07:33:30;;;;;;;19.93;10.90;;;;;;;7.72;100.00;98256.36;1734912;81;21548;-75
2022/04/16 07:35:58;;;;;;;18.30;11.18;;;;;;;7.80;100.00;98262.43;1745452;82;21534;-75
2022/04/16 07:38:27;;;;;;;17.83;10.37;;;;;;;7.95;100.00;98257.45;1744672;82;21033;-77
2022/04/16 07:40:54;;;;;;;19.80;10.17;;;;;;;8.16;100.00;98245.77;1732648;82;21050;-71
2022/04/16 07:43:21;;;;;;;17.50;10.30;;;;;;;8.34;100.00;98250.64;1732259;82;21042;-77
2022/04/16 07:46:04;;;;;;;;;;;;;;;;;;;;;
2022/04/16 07:48:29;;;;;;;19.70;10.60;;;;;;;8.76;100.00;98249.25;1649363;87;21636;-76
2022/04/16 07:50:56;;;;;;;16.50;9.68;;;;;;;8.95;100.00;98243.08;1647008;86;21046;-75
2022/04/16 07:53:24;;;;;;;15.90;9.70;;;;;;;8.97;100.00;98263.09;1645040;87;21618;-72
2022/04/16 07:55:50;;;;;;;18.87;9.23;;;;;;;8.90;100.00;98280.59;1645449;87;21074;-75
2022/04/16 07:58:18;;;;;;;17.40;9.97;;;;;;;8.84;100.00;98291.67;1645238;87;21110;-74
2022/04/16 08:00:45;;;;;;;17.70;9.70;;;;;;;8.93;100.00;98306.62;1644695;87;21599;-75
2022/04/16 08:03:12;;;;;;;17.47;9.93;;;;;;;9.10;100.00;98307.09;1644458;87;21085;-73
2022/04/16 08:05:40;;;;;;;17.87;9.30;;;;;;;9.22;100.00;98302.44;1647227;86;21089;-73
2022/04/16 08:08:10;;;;;;;20.03;10.13;;;;;;;9.18;100.00;98306.59;1649032;86;21109;-74
2022/04/16 08:10:40;;;;;;;17.07;10.30;;;;;;;9.24;100.00;98309.80;1649482;87;21603;-75
2022/04/16 08:13:12;;;;;;;18.87;10.37;;;;;;;9.34;100.00;98312.11;1649364;87;21129;-73
2022/04/16 08:15:41;;;;;;;16.97;10.20;;;;;;;9.47;100.00;98305.36;1649260;86;21094;-73
2022/04/16 08:18:08;;;;;;;17.20;9.70;;;;;;;9.55;100.00;98303.83;1649770;86;21133;-71
2022/04/16 08:20:35;;;;;;;17.00;9.67;;;;;;;9.73;100.00;98299.68;1649255;87;21086;-75
2022/04/16 08:23:06;;;;;;;19.77;9.97;;;;;;;9.91;100.00;98317.94;1649669;87;21156;-73
2022/04/16 08:28:01;;;;;;;20.87;9.90;;;;;;;10.35;100.00;98375.89;1690461;83;21072;-73
2022/04/16 08:30:29;;;;;;;19.70;9.18;;;;;;;10.41;100.00;98435.83;1716918;84;21063;-76
2022/04/16 08:32:56;;;;;;;14.65;8.45;;;;;;;10.47;100.00;98488.22;1710156;83;21030;-70
2022/04/16 08:35:23;;;;;;;18.90;9.58;;;;;;;10.56;100.00;98521.57;1742121;82;21088;-74
2022/04/16 08:37:52;;;;;;;19.17;9.57;;;;;;;10.50;100.00;98599.44;1712245;82;21074;-74
2022/04/16 08:40:19;;;;;;;32.53;10.20;;;;;;;10.41;100.00;98650.14;1725917;82;21444;-74
2022/04/16 08:42:50;;;;;;;20.52;9.65;;;;;;;10.28;100.00;98668.14;1732559;83;21026;-77
2022/04/16 08:45:17;;;;;;;19.37;9.10;;;;;;;10.27;100.00;98680.83;1735697;82;21034;-77
2022/04/16 08:47:45;;;;;;;21.25;9.88;;;;;;;10.46;100.00;98679.23;1768710;80;21058;-76
2022/04/16 08:50:14;;;;;;;17.90;9.48;;;;;;;10.69;100.00;98671.29;1771441;80;21515;-75
2022/04/16 08:52:41;;;;;;;16.60;9.50;;;;;;;10.79;100.00;98679.84;1771201;80;21034;-74
2022/04/16 08:55:11;;;;;;;18.40;9.85;;;;;;;10.78;100.00;98708.76;1796443;80;21041;-75
2022/04/16 08:57:41;;;;;;;17.00;9.08;;;;;;;10.75;100.00;98717.27;1771659;80;21061;-71
2022/04/16 09:00:14;;;;;;;16.65;8.83;;;;;;;10.87;100.00;98727.47;1796877;78;21046;-73
2022/04/16 09:02:57;;;;;;;15.72;8.70;;;;;;;11.03;100.00;98756.86;1763286;80;21974;-69
2022/04/16 09:05:26;;;;;;;17.80;8.88;;;;;;;11.14;100.00;98773.83;1796467;80;21061;-72
2022/04/16 09:07:59;;;;;;;18.48;9.70;;;;;;;11.35;100.00;98803.08;1797681;80;21045;-75
2022/04/16 09:10:29;;;;;;;15.08;8.88;;;;;;;11.50;100.00;98838.92;1797523;80;21061;-74
2022/04/16 09:12:59;;;;;;;16.25;8.70;;;;;;;11.55;100.00;98901.41;1771531;80;20971;-73
2022/04/16 09:15:27;;;;;;;18.60;9.33;;;;;;;11.64;100.00;98945.90;1796564;80;21082;-76
2022/04/16 09:18:08;;;;;;;17.98;8.78;;;;;;;11.75;100.00;99017.87;1796533;80;21041;-70
2022/04/16 09:20:38;;;;;;;18.45;8.93;;;;;;;11.93;100.00;99076.95;1797009;80;21029;-73
2022/04/16 09:23:21;;;;;;;18.95;9.40;;;;;;;12.01;100.00;99142.30;1771988;80;20959;-73
2022/04/16 09:25:51;;;;;;;17.40;8.93;;;;;;;11.96;100.00;99204.38;1796763;80;21503;-72
2022/04/16 09:28:19;;;;;;;15.75;9.70;;;;;;;11.94;100.00;99234.91;1795796;80;21057;-74
2022/04/16 09:30:57;;;;;;;19.10;9.73;;;;;;;11.93;100.00;99261.66;1793200;80;21543;-71
2022/04/16 09:33:24;;;;;;;18.52;9.68;;;;;;;11.93;100.00;99302.30;1759688;80;21050;-73
2022/04/16 09:35:57;;;;;;;15.43;8.60;;;;;;;11.90;100.00;99317.59;1757540;80;21007;-70
2022/04/16 09:38:27;;;;;;;17.55;8.98;;;;;;;11.89;100.00;99323.50;1791012;80;21022;-72
2022/04/16 09:40:54;;;;;;;16.30;8.60;;;;;;;11.75;100.00;99361.00;1790554;80;21105;-75
2022/04/16 09:43:22;;;;;;;17.40;9.48;;;;;;;11.73;100.00;99350.88;1790785;80;21069;-75
2022/04/16 09:45:49;;;;;;;15.88;8.45;;;;;;;11.96;100.00;99357.45;1758665;80;21058;-71
2022/04/16 09:48:19;;;;;;;18.82;9.25;;;;;;;12.32;100.00;99341.03;1771141;80;21071;-74
2022/04/16 09:50:46;;;;;;;17.27;9.40;;;;;;;12.64;100.00;99363.60;1738548;81;21488;-74
2022/04/16 09:53:16;;;;;;;17.57;8.73;;;;;;;12.95;100.00;99382.64;1739254;81;21020;-73
2022/04/16 09:55:43;;;;;;;14.58;8.13;;;;;;;12.97;100.00;99405.81;1760176;81;21027;-69
2022/04/16 09:58:12;;;;;;;22.22;8.73;;;;;;;13.00;100.00;99416.27;1760494;81;21090;-74
2022/04/16 10:00:41;;;;;;;17.35;8.38;;;;;;;13.05;100.00;99444.14;1759996;81;21054;-72
2022/04/16 10:03:08;;;;;;;15.85;8.88;;;;;;;13.04;100.00;99436.53;1760311;81;20984;-71
2022/04/16 10:05:36;;;;;;;17.57;8.88;;;;;;;13.05;100.00;99431.93;1735325;81;21525;-72
2022/04/16 10:08:05;;;;;;;17.60;8.78;;;;;;;13.10;100.00;99443.02;1739572;81;21059;-73
2022/04/16 10:10:40;;;;;;;15.78;9.70;;;;;;;13.20;100.00;99432.62;1739395;81;21008;-74
2022/04/16 10:13:05;;;;;;;19.35;9.43;;;;;;;13.24;100.00;99435.27;1757810;81;21024;-75
2022/04/16 10:16:00;;;;;;;17.07;9.08;;;;;;;13.26;100.00;99446.77;1760316;81;21055;-73
2022/04/16 10:18:28;;;;;;;17.92;9.30;;;;;;;13.20;100.00;99450.80;1760612;81;21036;-75
2022/04/16 10:21:00;;;;;;;17.15;9.40;;;;;;;13.10;100.00;99442.52;1739337;81;21055;-71
2022/04/16 10:23:31;;;;;;;16.70;8.83;;;;;;;13.35;100.00;99439.31;1760623;81;21012;-72
2022/04/16 10:26:09;;;;;;;15.78;8.93;;;;;;;13.42;100.00;99473.25;1760172;81;21027;-74
2022/04/16 10:28:55;;;;;;;16.30;9.38;;;;;;;13.51;100.00;99462.55;1732559;83;21604;-69
2022/04/16 10:31:28;;;;;;;18.92;10.32;;;;;;;13.49;100.00;99470.03;1732538;83;21047;-70
2022/04/16 10:34:11;;;;;;;18.62;9.60;;;;;;;13.36;100.00;99492.56;1732634;82;21489;-73
2022/04/16 10:36:44;;;;;;;19.20;10.43;;;;;;;13.15;100.00;99496.19;1733011;83;21604;-70
2022/04/16 10:39:20;;;;;;;18.00;9.65;;;;;;;13.11;100.00;99479.99;1706069;83;21008;-73
2022/04/16 10:41:56;;;;;;;15.25;9.03;;;;;;;13.13;100.00;99486.58;1733364;83;21043;-68
2022/04/16 10:44:24;;;;;;;19.15;9.53;;;;;;;13.13;100.00;99475.73;1732798;83;21083;-72
2022/04/16 10:46:53;;;;;;;17.27;10.03;;;;;;;13.22;100.00;99466.36;1733237;83;21047;-74
2022/04/16 10:49:24;;;;;;;16.60;8.55;;;;;;;13.32;100.00;99485.04;1732843;82;21107;-70
2022/04/16 10:51:58;;;;;;;15.75;8.55;;;;;;;13.32;100.00;99476.89;1722933;82;21075;-73
2022/04/16 10:54:32;;;;;;;15.03;8.08;;;;;;;13.19;100.00;99477.62;1749154;82;21027;-72
2022/04/16 10:56:59;;;;;;;16.42;8.63;;;;;;;13.14;100.00;99467.88;1664677;85;21039;-77
2022/04/16 10:59:42;;;;;;;15.80;7.42;;;;;;;13.15;100.00;99475.00;1749918;82;21527;-70
2022/04/16 11:02:19;;;;;;;13.30;8.15;;;;;;;13.24;100.00;99486.00;1684526;85;21056;-74
2022/04/16 11:05:09;;;;;;;18.52;8.85;;;;;;;13.03;100.00;99498.65;1684417;85;21120;-67
2022/04/16 11:07:40;;;;;;;15.88;8.13;;;;;;;12.94;100.00;99493.57;1661769;85;21073;-69
2022/04/16 11:10:10;;;;;;;17.65;8.95;;;;;;;13.04;100.00;99475.87;1656954;87;21647;-73
2022/04/16 11:12:40;;;;;;;18.77;8.58;;;;;;;13.08;100.00;99476.31;1635072;87;21107;-75
2022/04/16 11:15:18;;;;;;;17.07;8.93;;;;;;;13.19;100.00;99466.77;1656950;86;21074;-72
2022/04/16 11:17:44;;;;;;;16.07;8.40;;;;;;;13.29;100.00;99468.05;1656935;86;21548;-74
2022/04/16 11:20:12;;;;;;;14.70;7.70;;;;;;;13.30;100.00;99468.39;1653165;86;21026;-71
2022/04/16 11:22:40;;;;;;;14.30;7.50;;;;;;;13.18;100.00;99475.96;1634619;87;21067;-72
2022/04/16 11:25:09;;;;;;;17.75;8.45;;;;;;;13.09;100.00;99482.08;1657492;86;21072;-72
2022/04/16 11:36:01;;;;;;;15.23;8.15;;;;;;;12.98;100.00;99466.34;1625902;87;21154;-72
2022/04/16 11:38:31;;;;;;;14.75;7.58;;;;;;;13.03;100.00;99470.16;1635633;87;21108;-73
2022/04/16 11:41:01;;;;;;;19.50;8.45;;;;;;;13.00;100.00;99469.72;1586094;90;21110;-70
2022/04/16 11:43:31;;;;;;;16.15;8.70;;;;;;;12.96;100.00;99467.92;1586491;90;21169;-71
2022/04/16 11:46:01;;;;;;;17.30;7.90;;;;;;;13.03;100.00;99464.73;1586376;90;21137;-69
2022/04/16 11:48:31;;;;;;;13.93;7.60;;;;;;;13.09;100.00;99456.29;1600560;88;21087;-73
2022/04/16 11:50:59;;;;;;;14.43;7.30;;;;;;;13.08;100.00;99455.96;1611560;89;21066;-74